sensor_id;sensor_type;location;lat;lon;timestamp;temperature;humidity
67777;DHT22;54576;52.020;5.536;2023-04-01T00:00:28;10.50;99.90
67777;DHT22;54576;52.020;5.536;2023-04-01T00:02:54;10.50;99.90
67777;DHT22;54576;52.020;5.536;2023-04-01T00:05:19;10.50;99.90
67777;DHT22;54576;52.020;5.536;2023-04-01T00:07:45;10.50;99.90
67777;DHT22;54576;52.020;5.536;2023-04-01T00:10:11;10.50;99.90
67777;DHT22;54576;52.020;5.536;2023-04-01T00:12:37;10.50;99.90
67777;DHT22;54576;52.020;5.536;2023-04-01T00:15:04;10.50;99.90
67777;DHT22;54576;52.020;5.536;2023-04-01T00:17:30;10.50;99.90
67777;DHT22;54576;52.020;5.536;2023-04-01T00:19:55;10.50;99.90
67777;DHT22;54576;52.020;5.536;2023-04-01T00:22:22;10.50;99.90
67777;DHT22;54576;52.020;5.536;2023-04-01T00:24:47;10.50;99.90
67777;DHT22;54576;52.020;5.536;2023-04-01T00:27:13;10.50;99.90
67777;DHT22;54576;52.020;5.536;2023-04-01T00:29:41;10.50;99.90
67777;DHT22;54576;52.020;5.536;2023-04-01T00:32:07;10.50;99.90
67777;DHT22;54576;52.020;5.536;2023-04-01T00:34:33;10.60;99.90
67777;DHT22;54576;52.020;5.536;2023-04-01T00:36:58;10.50;99.90
67777;DHT22;54576;52.020;5.536;2023-04-01T00:39:24;10.50;99.90
67777;DHT22;54576;52.020;5.536;2023-04-01T00:41:49;10.50;99.90
67777;DHT22;54576;52.020;5.536;2023-04-01T00:44:22;10.50;99.90
67777;DHT22;54576;52.020;5.536;2023-04-01T00:46:48;10.50;99.90
67777;DHT22;54576;52.020;5.536;2023-04-01T00:49:14;10.50;99.90
67777;DHT22;54576;52.020;5.536;2023-04-01T00:51:41;10.50;99.90
67777;DHT22;54576;52.020;5.536;2023-04-01T00:54:07;10.60;99.90
67777;DHT22;54576;52.020;5.536;2023-04-01T00:56:34;10.50;99.90
67777;DHT22;54576;52.020;5.536;2023-04-01T00:59:04;10.50;99.90
67777;DHT22;54576;52.020;5.536;2023-04-01T01:01:30;10.50;99.90
67777;DHT22;54576;52.020;5.536;2023-04-01T01:03:57;10.50;99.90
67777;DHT22;54576;52.020;5.536;2023-04-01T01:06:29;10.50;99.90
67777;DHT22;54576;52.020;5.536;2023-04-01T01:14:13;10.50;99.90
67777;DHT22;54576;52.020;5.536;2023-04-01T01:16:45;10.50;99.90
67777;DHT22;54576;52.020;5.536;2023-04-01T01:19:22;10.50;99.90
67777;DHT22;54576;52.020;5.536;2023-04-01T01:21:58;10.40;99.90
67777;DHT22;54576;52.020;5.536;2023-04-01T01:24:35;10.40;99.90
67777;DHT22;54576;52.020;5.536;2023-04-01T01:27:10;10.40;99.90
67777;DHT22;54576;52.020;5.536;2023-04-01T01:37:16;10.20;99.90
67777;DHT22;54576;52.020;5.536;2023-04-01T01:39:43;10.20;99.90
67777;DHT22;54576;52.020;5.536;2023-04-01T01:42:11;10.20;99.90
67777;DHT22;54576;52.020;5.536;2023-04-01T01:44:38;10.20;99.90
67777;DHT22;54576;52.020;5.536;2023-04-01T01:47:04;10.20;99.90
67777;DHT22;54576;52.020;5.536;2023-04-01T01:49:30;10.20;99.90
67777;DHT22;54576;52.020;5.536;2023-04-01T01:51:57;10.10;99.90
67777;DHT22;54576;52.020;5.536;2023-04-01T01:54:23;10.10;99.90
67777;DHT22;54576;52.020;5.536;2023-04-01T01:56:49;10.10;99.90
67777;DHT22;54576;52.020;5.536;2023-04-01T01:59:15;10.10;99.90
67777;DHT22;54576;52.020;5.536;2023-04-01T02:01:45;10.10;99.90
67777;DHT22;54576;52.020;5.536;2023-04-01T02:04:12;10.10;99.90
67777;DHT22;54576;52.020;5.536;2023-04-01T02:06:39;10.00;99.90
67777;DHT22;54576;52.020;5.536;2023-04-01T02:09:08;10.00;99.90
67777;DHT22;54576;52.020;5.536;2023-04-01T02:14:08;10.00;99.90
67777;DHT22;54576;52.020;5.536;2023-04-01T02:16:40;10.00;99.90
67777;DHT22;54576;52.020;5.536;2023-04-01T02:19:07;10.00;99.90
67777;DHT22;54576;52.020;5.536;2023-04-01T02:21:33;10.00;99.90
67777;DHT22;54576;52.020;5.536;2023-04-01T02:24:00;10.00;99.90
67777;DHT22;54576;52.020;5.536;2023-04-01T02:26:26;10.00;99.90
67777;DHT22;54576;52.020;5.536;2023-04-01T02:28:52;9.90;99.90
67777;DHT22;54576;52.020;5.536;2023-04-01T02:31:18;9.90;99.90
67777;DHT22;54576;52.020;5.536;2023-04-01T02:33:44;10.00;99.90
67777;DHT22;54576;52.020;5.536;2023-04-01T02:36:12;9.90;99.90
67777;DHT22;54576;52.020;5.536;2023-04-01T02:38:38;9.90;99.90
67777;DHT22;54576;52.020;5.536;2023-04-01T02:41:04;9.90;99.90
67777;DHT22;54576;52.020;5.536;2023-04-01T02:43:30;9.90;99.90
67777;DHT22;54576;52.020;5.536;2023-04-01T02:45:55;9.90;99.90
67777;DHT22;54576;52.020;5.536;2023-04-01T02:48:21;9.90;99.90
67777;DHT22;54576;52.020;5.536;2023-04-01T02:50:46;9.90;99.90
67777;DHT22;54576;52.020;5.536;2023-04-01T02:53:12;9.90;99.90
67777;DHT22;54576;52.020;5.536;2023-04-01T02:55:38;9.90;99.90
67777;DHT22;54576;52.020;5.536;2023-04-01T02:58:03;9.90;99.90
67777;DHT22;54576;52.020;5.536;2023-04-01T03:00:29;9.90;99.90
67777;DHT22;54576;52.020;5.536;2023-04-01T03:02:54;9.90;99.90
67777;DHT22;54576;52.020;5.536;2023-04-01T03:05:20;9.90;99.90
67777;DHT22;54576;52.020;5.536;2023-04-01T03:07:46;9.90;99.90
67777;DHT22;54576;52.020;5.536;2023-04-01T03:10:12;9.90;99.90
67777;DHT22;54576;52.020;5.536;2023-04-01T03:12:37;9.90;99.90
67777;DHT22;54576;52.020;5.536;2023-04-01T03:15:03;9.90;99.90
67777;DHT22;54576;52.020;5.536;2023-04-01T03:17:29;9.90;99.90
67777;DHT22;54576;52.020;5.536;2023-04-01T03:19:54;9.90;99.90
67777;DHT22;54576;52.020;5.536;2023-04-01T03:22:20;9.80;99.90
67777;DHT22;54576;52.020;5.536;2023-04-01T03:24:47;9.80;99.90
67777;DHT22;54576;52.020;5.536;2023-04-01T03:27:15;9.80;99.90
67777;DHT22;54576;52.020;5.536;2023-04-01T03:29:41;9.80;99.90
67777;DHT22;54576;52.020;5.536;2023-04-01T03:32:06;9.80;99.90
67777;DHT22;54576;52.020;5.536;2023-04-01T03:34:31;9.80;99.90
67777;DHT22;54576;52.020;5.536;2023-04-01T03:36:57;9.80;99.90
67777;DHT22;54576;52.020;5.536;2023-04-01T03:39:22;9.90;99.90
67777;DHT22;54576;52.020;5.536;2023-04-01T03:41:48;9.80;99.90
67777;DHT22;54576;52.020;5.536;2023-04-01T03:44:14;9.80;99.90
67777;DHT22;54576;52.020;5.536;2023-04-01T03:46:39;9.80;99.90
67777;DHT22;54576;52.020;5.536;2023-04-01T03:49:08;9.80;99.90
67777;DHT22;54576;52.020;5.536;2023-04-01T03:51:40;9.80;99.90
67777;DHT22;54576;52.020;5.536;2023-04-01T03:54:06;9.80;99.90
67777;DHT22;54576;52.020;5.536;2023-04-01T03:56:31;9.80;99.90
67777;DHT22;54576;52.020;5.536;2023-04-01T03:58:57;9.80;99.90
67777;DHT22;54576;52.020;5.536;2023-04-01T04:01:22;9.80;99.90
67777;DHT22;54576;52.020;5.536;2023-04-01T04:03:48;9.80;99.90
67777;DHT22;54576;52.020;5.536;2023-04-01T04:06:15;9.80;99.90
67777;DHT22;54576;52.020;5.536;2023-04-01T04:08:41;9.80;99.90
67777;DHT22;54576;52.020;5.536;2023-04-01T04:11:06;9.80;99.90
67777;DHT22;54576;52.020;5.536;2023-04-01T04:13:32;9.80;99.90
67777;DHT22;54576;52.020;5.536;2023-04-01T04:15:57;9.80;99.90
67777;DHT22;54576;52.020;5.536;2023-04-01T04:18:23;9.90;99.90
67777;DHT22;54576;52.020;5.536;2023-04-01T04:20:48;9.90;99.90
67777;DHT22;54576;52.020;5.536;2023-04-01T04:23:16;9.80;99.90
67777;DHT22;54576;52.020;5.536;2023-04-01T04:25:52;9.90;99.90
67777;DHT22;54576;52.020;5.536;2023-04-01T04:28:18;9.90;99.90
67777;DHT22;54576;52.020;5.536;2023-04-01T04:30:43;9.90;99.90
67777;DHT22;54576;52.020;5.536;2023-04-01T04:33:09;9.90;99.90
67777;DHT22;54576;52.020;5.536;2023-04-01T04:35:34;9.90;99.90
67777;DHT22;54576;52.020;5.536;2023-04-01T04:38:00;9.90;99.90
67777;DHT22;54576;52.020;5.536;2023-04-01T04:40:25;9.90;99.90
67777;DHT22;54576;52.020;5.536;2023-04-01T04:42:51;9.90;99.90
67777;DHT22;54576;52.020;5.536;2023-04-01T04:45:16;9.90;99.90
67777;DHT22;54576;52.020;5.536;2023-04-01T04:47:42;9.90;99.90
67777;DHT22;54576;52.020;5.536;2023-04-01T04:50:07;9.90;99.90
67777;DHT22;54576;52.020;5.536;2023-04-01T04:52:33;9.90;99.90
67777;DHT22;54576;52.020;5.536;2023-04-01T04:54:59;10.00;99.90
67777;DHT22;54576;52.020;5.536;2023-04-01T04:57:24;10.00;99.90
67777;DHT22;54576;52.020;5.536;2023-04-01T04:59:50;10.00;99.90
67777;DHT22;54576;52.020;5.536;2023-04-01T05:02:15;10.00;99.90
67777;DHT22;54576;52.020;5.536;2023-04-01T05:04:41;10.10;99.90
67777;DHT22;54576;52.020;5.536;2023-04-01T05:07:06;10.00;99.90
67777;DHT22;54576;52.020;5.536;2023-04-01T05:09:31;10.00;99.90
67777;DHT22;54576;52.020;5.536;2023-04-01T05:11:58;10.10;99.90
67777;DHT22;54576;52.020;5.536;2023-04-01T05:14:23;10.10;99.90
67777;DHT22;54576;52.020;5.536;2023-04-01T05:16:49;10.10;99.90
67777;DHT22;54576;52.020;5.536;2023-04-01T05:19:18;10.10;99.90
67777;DHT22;54576;52.020;5.536;2023-04-01T05:21:44;10.20;99.90
67777;DHT22;54576;52.020;5.536;2023-04-01T05:24:09;10.20;99.90
67777;DHT22;54576;52.020;5.536;2023-04-01T05:26:35;10.20;99.90
67777;DHT22;54576;52.020;5.536;2023-04-01T05:29:02;10.20;99.90
67777;DHT22;54576;52.020;5.536;2023-04-01T05:31:27;10.10;99.90
67777;DHT22;54576;52.020;5.536;2023-04-01T05:33:53;10.20;99.90
67777;DHT22;54576;52.020;5.536;2023-04-01T05:36:19;10.10;99.90
67777;DHT22;54576;52.020;5.536;2023-04-01T05:38:45;10.20;99.90
67777;DHT22;54576;52.020;5.536;2023-04-01T05:41:13;10.10;99.90
67777;DHT22;54576;52.020;5.536;2023-04-01T05:43:39;10.20;99.90
67777;DHT22;54576;52.020;5.536;2023-04-01T05:46:05;10.20;99.90
67777;DHT22;54576;52.020;5.536;2023-04-01T05:48:31;10.20;99.90
67777;DHT22;54576;52.020;5.536;2023-04-01T05:50:57;10.20;99.90
67777;DHT22;54576;52.020;5.536;2023-04-01T05:53:23;10.20;99.90
67777;DHT22;54576;52.020;5.536;2023-04-01T05:55:48;10.20;99.90
67777;DHT22;54576;52.020;5.536;2023-04-01T05:58:14;10.20;99.90
67777;DHT22;54576;52.020;5.536;2023-04-01T06:00:39;10.20;99.90
67777;DHT22;54576;52.020;5.536;2023-04-01T06:03:05;10.20;99.90
67777;DHT22;54576;52.020;5.536;2023-04-01T06:05:35;10.20;99.90
67777;DHT22;54576;52.020;5.536;2023-04-01T06:08:10;10.20;99.90
67777;DHT22;54576;52.020;5.536;2023-04-01T06:10:50;10.20;99.90
67777;DHT22;54576;52.020;5.536;2023-04-01T06:13:21;10.20;99.90
67777;DHT22;54576;52.020;5.536;2023-04-01T06:15:53;10.20;99.90
67777;DHT22;54576;52.020;5.536;2023-04-01T06:26:24;10.40;99.90
67777;DHT22;54576;52.020;5.536;2023-04-01T06:39:19;10.50;99.90
67777;DHT22;54576;52.020;5.536;2023-04-01T06:46:59;10.50;99.90
67777;DHT22;54576;52.020;5.536;2023-04-01T06:55:00;10.50;99.90
67777;DHT22;54576;52.020;5.536;2023-04-01T06:57:34;10.50;99.90
67777;DHT22;54576;52.020;5.536;2023-04-01T07:00:03;10.50;99.90
67777;DHT22;54576;52.020;5.536;2023-04-01T07:02:32;10.50;99.90
67777;DHT22;54576;52.020;5.536;2023-04-01T07:05:00;10.50;99.90
67777;DHT22;54576;52.020;5.536;2023-04-01T07:07:43;10.50;99.90
67777;DHT22;54576;52.020;5.536;2023-04-01T07:10:11;10.50;99.90
67777;DHT22;54576;52.020;5.536;2023-04-01T07:12:48;10.60;99.90
67777;DHT22;54576;52.020;5.536;2023-04-01T07:15:17;10.50;99.90
67777;DHT22;54576;52.020;5.536;2023-04-01T07:17:44;10.60;99.90
67777;DHT22;54576;52.020;5.536;2023-04-01T07:22:39;10.60;99.90
67777;DHT22;54576;52.020;5.536;2023-04-01T07:25:13;10.60;99.90
67777;DHT22;54576;52.020;5.536;2023-04-01T07:27:39;10.60;99.90
67777;DHT22;54576;52.020;5.536;2023-04-01T07:30:06;10.50;99.90
67777;DHT22;54576;52.020;5.536;2023-04-01T07:32:58;10.50;99.90
67777;DHT22;54576;52.020;5.536;2023-04-01T07:35:29;10.50;99.90
67777;DHT22;54576;52.020;5.536;2023-04-01T07:40:39;10.60;99.90
67777;DHT22;54576;52.020;5.536;2023-04-01T07:43:15;10.60;99.90
67777;DHT22;54576;52.020;5.536;2023-04-01T07:45:53;10.60;99.90
67777;DHT22;54576;52.020;5.536;2023-04-01T07:48:24;10.50;99.90
67777;DHT22;54576;52.020;5.536;2023-04-01T07:53:38;10.60;99.90
67777;DHT22;54576;52.020;5.536;2023-04-01T07:56:06;10.60;99.90
67777;DHT22;54576;52.020;5.536;2023-04-01T08:03:48;10.60;99.90
67777;DHT22;54576;52.020;5.536;2023-04-01T08:13:59;10.70;99.90
67777;DHT22;54576;52.020;5.536;2023-04-01T08:18:56;10.70;99.90
67777;DHT22;54576;52.020;5.536;2023-04-01T08:21:47;10.80;99.90
67777;DHT22;54576;52.020;5.536;2023-04-01T08:24:33;10.80;99.90
67777;DHT22;54576;52.020;5.536;2023-04-01T08:27:01;10.80;99.90
67777;DHT22;54576;52.020;5.536;2023-04-01T08:29:44;10.80;99.90
67777;DHT22;54576;52.020;5.536;2023-04-01T08:32:22;10.80;99.90
67777;DHT22;54576;52.020;5.536;2023-04-01T08:34:54;10.80;99.90
67777;DHT22;54576;52.020;5.536;2023-04-01T08:37:25;10.80;99.90
67777;DHT22;54576;52.020;5.536;2023-04-01T08:39:54;10.90;99.90
67777;DHT22;54576;52.020;5.536;2023-04-01T08:42:31;10.90;99.90
67777;DHT22;54576;52.020;5.536;2023-04-01T08:55:44;10.90;99.90
67777;DHT22;54576;52.020;5.536;2023-04-01T09:00:46;10.90;99.90
67777;DHT22;54576;52.020;5.536;2023-04-01T09:08:19;10.90;99.90
67777;DHT22;54576;52.020;5.536;2023-04-01T09:10:52;10.90;99.90
67777;DHT22;54576;52.020;5.536;2023-04-01T09:13:40;10.90;99.90
67777;DHT22;54576;52.020;5.536;2023-04-01T09:26:29;11.00;99.90
67777;DHT22;54576;52.020;5.536;2023-04-01T09:31:36;11.10;99.90
67777;DHT22;54576;52.020;5.536;2023-04-01T09:41:31;11.30;99.90
67777;DHT22;54576;52.020;5.536;2023-04-01T09:44:01;11.30;99.90
67777;DHT22;54576;52.020;5.536;2023-04-01T09:46:42;11.40;99.90
67777;DHT22;54576;52.020;5.536;2023-04-01T09:54:48;11.70;99.90
67777;DHT22;54576;52.020;5.536;2023-04-01T10:15:56;11.90;99.90
67777;DHT22;54576;52.020;5.536;2023-04-01T10:28:53;12.90;99.90
67777;DHT22;54576;52.020;5.536;2023-04-01T10:34:10;13.00;99.90
67777;DHT22;54576;52.020;5.536;2023-04-01T10:36:41;13.20;99.90
67777;DHT22;54576;52.020;5.536;2023-04-01T10:46:47;13.50;99.90
67777;DHT22;54576;52.020;5.536;2023-04-01T10:54:49;13.80;99.90
67777;DHT22;54576;52.020;5.536;2023-04-01T11:05:23;13.10;99.90
67777;DHT22;54576;52.020;5.536;2023-04-01T11:30:00;13.20;99.90
67777;DHT22;54576;52.020;5.536;2023-04-01T11:32:34;13.40;99.90
67777;DHT22;54576;52.020;5.536;2023-04-01T11:42:30;13.20;99.90
67777;DHT22;54576;52.020;5.536;2023-04-01T12:03:02;12.60;99.90
67777;DHT22;54576;52.020;5.536;2023-04-01T12:05:54;12.70;99.90
67777;DHT22;54576;52.020;5.536;2023-04-01T12:18:42;12.70;99.90
67777;DHT22;54576;52.020;5.536;2023-04-01T12:21:22;12.70;99.90
67777;DHT22;54576;52.020;5.536;2023-04-01T12:24:00;12.70;99.90
67777;DHT22;54576;52.020;5.536;2023-04-01T12:26:33;12.70;99.90
67777;DHT22;54576;52.020;5.536;2023-04-01T12:31:41;12.70;99.90
67777;DHT22;54576;52.020;5.536;2023-04-01T12:36:50;12.70;99.90
67777;DHT22;54576;52.020;5.536;2023-04-01T12:39:29;12.70;99.90
67777;DHT22;54576;52.020;5.536;2023-04-01T12:42:16;12.80;99.90
67777;DHT22;54576;52.020;5.536;2023-04-01T12:45:12;12.80;99.90
67777;DHT22;54576;52.020;5.536;2023-04-01T12:47:56;13.00;99.90
67777;DHT22;54576;52.020;5.536;2023-04-01T12:53:23;13.10;99.90
67777;DHT22;54576;52.020;5.536;2023-04-01T12:55:50;13.30;99.90
67777;DHT22;54576;52.020;5.536;2023-04-01T12:58:35;13.40;99.90
67777;DHT22;54576;52.020;5.536;2023-04-01T13:01:15;13.60;99.90
67777;DHT22;54576;52.020;5.536;2023-04-01T13:03:52;13.90;99.90
67777;DHT22;54576;52.020;5.536;2023-04-01T13:06:32;13.90;99.90
67777;DHT22;54576;52.020;5.536;2023-04-01T13:22:55;14.10;99.90
67777;DHT22;54576;52.020;5.536;2023-04-01T13:25:00;14.00;99.90
67777;DHT22;54576;52.020;5.536;2023-04-01T13:32:36;13.50;99.90
67777;DHT22;54576;52.020;5.536;2023-04-01T13:38:01;13.30;99.90
67777;DHT22;54576;52.020;5.536;2023-04-01T13:43:19;13.30;99.90
67777;DHT22;54576;52.020;5.536;2023-04-01T13:45:51;13.20;99.90
67777;DHT22;54576;52.020;5.536;2023-04-01T13:48:35;13.20;99.90
67777;DHT22;54576;52.020;5.536;2023-04-01T14:11:45;12.40;99.90
67777;DHT22;54576;52.020;5.536;2023-04-01T14:19:33;12.40;99.90
67777;DHT22;54576;52.020;5.536;2023-04-01T14:22:09;12.30;99.90
67777;DHT22;54576;52.020;5.536;2023-04-01T14:24:44;12.20;99.90
67777;DHT22;54576;52.020;5.536;2023-04-01T14:37:55;12.20;99.90
67777;DHT22;54576;52.020;5.536;2023-04-01T14:40:34;12.20;99.90
67777;DHT22;54576;52.020;5.536;2023-04-01T14:43:20;12.10;99.90
67777;DHT22;54576;52.020;5.536;2023-04-01T14:51:10;12.00;99.90
67777;DHT22;54576;52.020;5.536;2023-04-01T14:53:43;11.90;99.90
67777;DHT22;54576;52.020;5.536;2023-04-01T14:56:11;11.90;99.90
67777;DHT22;54576;52.020;5.536;2023-04-01T15:09:56;11.60;99.90
67777;DHT22;54576;52.020;5.536;2023-04-01T15:17:53;11.60;99.90
67777;DHT22;54576;52.020;5.536;2023-04-01T15:22:59;11.70;99.90
67777;DHT22;54576;52.020;5.536;2023-04-01T15:25:49;11.70;99.90
67777;DHT22;54576;52.020;5.536;2023-04-01T15:33:35;11.70;99.90
67777;DHT22;54576;52.020;5.536;2023-04-01T15:41:02;11.80;99.90
67777;DHT22;54576;52.020;5.536;2023-04-01T15:45:58;11.80;99.90
67777;DHT22;54576;52.020;5.536;2023-04-01T15:48:38;11.70;99.90
67777;DHT22;54576;52.020;5.536;2023-04-01T15:51:20;11.70;99.90
67777;DHT22;54576;52.020;5.536;2023-04-01T15:54:03;11.70;99.90
67777;DHT22;54576;52.020;5.536;2023-04-01T16:01:46;11.60;99.90
67777;DHT22;54576;52.020;5.536;2023-04-01T16:04:24;11.60;99.90
67777;DHT22;54576;52.020;5.536;2023-04-01T16:07:10;11.50;99.90
67777;DHT22;54576;52.020;5.536;2023-04-01T16:09:56;11.50;99.90
67777;DHT22;54576;52.020;5.536;2023-04-01T16:12:30;11.50;99.90
67777;DHT22;54576;52.020;5.536;2023-04-01T16:15:08;11.50;99.90
67777;DHT22;54576;52.020;5.536;2023-04-01T16:17:49;11.60;99.90
67777;DHT22;54576;52.020;5.536;2023-04-01T16:20:18;11.60;99.90
67777;DHT22;54576;52.020;5.536;2023-04-01T16:22:59;11.60;99.90
67777;DHT22;54576;52.020;5.536;2023-04-01T16:25:49;11.50;99.90
67777;DHT22;54576;52.020;5.536;2023-04-01T16:30:55;11.40;99.90
67777;DHT22;54576;52.020;5.536;2023-04-01T16:36:22;11.30;99.90
67777;DHT22;54576;52.020;5.536;2023-04-01T16:39:06;11.30;99.90
67777;DHT22;54576;52.020;5.536;2023-04-01T17:20:56;10.70;99.90
67777;DHT22;54576;52.020;5.536;2023-04-01T17:23:34;10.60;99.90
67777;DHT22;54576;52.020;5.536;2023-04-01T17:26:06;10.60;99.90
67777;DHT22;54576;52.020;5.536;2023-04-01T17:41:51;10.50;99.90
67777;DHT22;54576;52.020;5.536;2023-04-01T17:44:25;10.50;99.90
67777;DHT22;54576;52.020;5.536;2023-04-01T17:51:59;10.40;99.90
67777;DHT22;54576;52.020;5.536;2023-04-01T17:54:29;10.40;99.90
67777;DHT22;54576;52.020;5.536;2023-04-01T17:57:04;10.40;99.90
67777;DHT22;54576;52.020;5.536;2023-04-01T17:59:35;10.30;99.90
67777;DHT22;54576;52.020;5.536;2023-04-01T18:02:05;10.30;99.90
67777;DHT22;54576;52.020;5.536;2023-04-01T18:04:41;10.30;99.90
67777;DHT22;54576;52.020;5.536;2023-04-01T18:14:49;10.10;99.90
67777;DHT22;54576;52.020;5.536;2023-04-01T18:17:27;10.10;99.90
67777;DHT22;54576;52.020;5.536;2023-04-01T18:22:45;10.00;99.90
67777;DHT22;54576;52.020;5.536;2023-04-01T18:27:42;9.90;99.90
67777;DHT22;54576;52.020;5.536;2023-04-01T18:30:13;9.90;99.90
67777;DHT22;54576;52.020;5.536;2023-04-01T18:35:17;9.90;99.90
67777;DHT22;54576;52.020;5.536;2023-04-01T18:37:55;9.80;99.90
67777;DHT22;54576;52.020;5.536;2023-04-01T18:40:43;9.80;99.90
67777;DHT22;54576;52.020;5.536;2023-04-01T18:45:59;9.70;99.90
67777;DHT22;54576;52.020;5.536;2023-04-01T18:53:52;9.70;99.90
67777;DHT22;54576;52.020;5.536;2023-04-01T18:56:24;9.70;99.90
67777;DHT22;54576;52.020;5.536;2023-04-01T19:06:50;9.60;99.90
67777;DHT22;54576;52.020;5.536;2023-04-01T19:09:59;9.60;99.90
67777;DHT22;54576;52.020;5.536;2023-04-01T19:12:20;9.60;99.90
67777;DHT22;54576;52.020;5.536;2023-04-01T19:20:26;9.60;99.90
67777;DHT22;54576;52.020;5.536;2023-04-01T19:22:51;9.60;99.90
67777;DHT22;54576;52.020;5.536;2023-04-01T19:25:25;9.60;99.90
67777;DHT22;54576;52.020;5.536;2023-04-01T19:27:52;9.60;99.90
67777;DHT22;54576;52.020;5.536;2023-04-01T19:32:47;9.50;99.90
67777;DHT22;54576;52.020;5.536;2023-04-01T19:37:55;9.50;99.90
67777;DHT22;54576;52.020;5.536;2023-04-01T19:40:29;9.50;99.90
67777;DHT22;54576;52.020;5.536;2023-04-01T19:55:50;9.40;99.90
67777;DHT22;54576;52.020;5.536;2023-04-01T19:58:33;9.30;99.90
67777;DHT22;54576;52.020;5.536;2023-04-01T20:01:03;9.30;99.90
67777;DHT22;54576;52.020;5.536;2023-04-01T20:03:49;9.20;99.90
67777;DHT22;54576;52.020;5.536;2023-04-01T20:11:46;9.00;99.90
67777;DHT22;54576;52.020;5.536;2023-04-01T20:17:01;9.00;99.90
67777;DHT22;54576;52.020;5.536;2023-04-01T20:19:28;9.00;99.90
67777;DHT22;54576;52.020;5.536;2023-04-01T20:21:59;9.00;99.90
67777;DHT22;54576;52.020;5.536;2023-04-01T20:24:30;9.00;99.90
67777;DHT22;54576;52.020;5.536;2023-04-01T20:29:55;8.90;99.90
67777;DHT22;54576;52.020;5.536;2023-04-01T20:35:13;8.80;99.90
67777;DHT22;54576;52.020;5.536;2023-04-01T20:37:49;8.80;99.90
67777;DHT22;54576;52.020;5.536;2023-04-01T20:50:59;8.60;99.90
67777;DHT22;54576;52.020;5.536;2023-04-01T20:56:14;8.60;99.90
67777;DHT22;54576;52.020;5.536;2023-04-01T20:58:58;8.50;99.90
67777;DHT22;54576;52.020;5.536;2023-04-01T21:06:37;8.60;99.90
67777;DHT22;54576;52.020;5.536;2023-04-01T21:11:35;8.60;99.90
67777;DHT22;54576;52.020;5.536;2023-04-01T21:16:49;8.60;99.90
67777;DHT22;54576;52.020;5.536;2023-04-01T21:29:43;8.40;99.90
67777;DHT22;54576;52.020;5.536;2023-04-01T21:32:18;8.40;99.90
67777;DHT22;54576;52.020;5.536;2023-04-01T21:35:03;8.30;99.90
67777;DHT22;54576;52.020;5.536;2023-04-01T21:42:43;8.20;99.90
67777;DHT22;54576;52.020;5.536;2023-04-01T21:48:05;8.20;99.90
67777;DHT22;54576;52.020;5.536;2023-04-01T22:00:45;8.20;99.90
67777;DHT22;54576;52.020;5.536;2023-04-01T22:06:06;8.10;99.90
67777;DHT22;54576;52.020;5.536;2023-04-01T22:11:15;8.10;99.90
67777;DHT22;54576;52.020;5.536;2023-04-01T22:13:50;8.00;99.90
67777;DHT22;54576;52.020;5.536;2023-04-01T22:16:22;8.00;99.90
67777;DHT22;54576;52.020;5.536;2023-04-01T22:21:18;7.90;99.90
67777;DHT22;54576;52.020;5.536;2023-04-01T22:26:37;8.00;99.90
67777;DHT22;54576;52.020;5.536;2023-04-01T22:29:07;7.90;99.90
67777;DHT22;54576;52.020;5.536;2023-04-01T22:31:44;7.90;99.90
67777;DHT22;54576;52.020;5.536;2023-04-01T22:34:22;7.90;99.90
67777;DHT22;54576;52.020;5.536;2023-04-01T22:36:58;7.90;99.90
67777;DHT22;54576;52.020;5.536;2023-04-01T22:39:29;7.90;99.90
67777;DHT22;54576;52.020;5.536;2023-04-01T22:49:46;7.70;99.90
67777;DHT22;54576;52.020;5.536;2023-04-01T22:54:46;7.70;99.90
67777;DHT22;54576;52.020;5.536;2023-04-01T22:59:45;7.60;99.90
67777;DHT22;54576;52.020;5.536;2023-04-01T23:02:29;7.60;99.90
67777;DHT22;54576;52.020;5.536;2023-04-01T23:04:56;7.60;99.90
67777;DHT22;54576;52.020;5.536;2023-04-01T23:07:33;7.60;99.90
67777;DHT22;54576;52.020;5.536;2023-04-01T23:10:03;7.60;99.90
67777;DHT22;54576;52.020;5.536;2023-04-01T23:12:31;7.50;99.90
67777;DHT22;54576;52.020;5.536;2023-04-01T23:14:58;7.50;99.90
67777;DHT22;54576;52.020;5.536;2023-04-01T23:17:35;7.50;99.90
67777;DHT22;54576;52.020;5.536;2023-04-01T23:20:07;7.40;99.90
67777;DHT22;54576;52.020;5.536;2023-04-01T23:27:51;7.40;99.90
67777;DHT22;54576;52.020;5.536;2023-04-01T23:38:12;7.40;99.90
67777;DHT22;54576;52.020;5.536;2023-04-01T23:40:37;7.40;99.90
67777;DHT22;54576;52.020;5.536;2023-04-01T23:43:10;7.40;99.90
67777;DHT22;54576;52.020;5.536;2023-04-01T23:45:37;7.40;99.90
67777;DHT22;54576;52.020;5.536;2023-04-01T23:48:03;7.40;99.90
67777;DHT22;54576;52.020;5.536;2023-04-01T23:50:28;7.40;99.90
67777;DHT22;54576;52.020;5.536;2023-04-01T23:53:04;7.40;99.90
67777;DHT22;54576;52.020;5.536;2023-04-01T23:55:34;7.30;99.90
67777;DHT22;54576;52.020;5.536;2023-04-01T23:58:22;7.30;99.90
